createdAt,value
2022-11-03T00:02:01.245Z,4.72
2022-11-03T00:04:31.472Z,7.20
2022-11-03T00:07:01.918Z,5.53
2022-11-03T00:09:33.959Z,6.00
2022-11-03T00:12:04.491Z,5.32
2022-11-03T00:14:36.051Z,8.13
2022-11-03T00:17:06.390Z,5.60
2022-11-03T00:19:36.375Z,9.43
2022-11-03T00:22:06.679Z,5.97
2022-11-03T00:24:36.763Z,8.75
2022-11-03T00:27:07.015Z,6.68
2022-11-03T00:29:38.800Z,13.02
2022-11-03T00:32:09.281Z,5.22
2022-11-03T00:34:40.807Z,6.10
2022-11-03T00:37:11.239Z,6.43
2022-11-03T00:39:41.275Z,5.53
2022-11-03T00:42:11.531Z,7.32
2022-11-03T00:44:42.861Z,5.63
2022-11-03T00:47:13.229Z,4.88
2022-11-03T00:49:45.861Z,6.70
2022-11-03T00:52:16.176Z,20.00
2022-11-03T00:54:48.842Z,4.72
2022-11-03T00:57:20.589Z,6.78
2022-11-03T00:59:51.973Z,6.13
2022-11-03T01:02:22.297Z,6.03
2022-11-03T01:05:10.380Z,4.97
2022-11-03T01:07:40.719Z,8.40
2022-11-03T01:10:12.050Z,8.23
2022-11-03T01:12:43.609Z,6.65
2022-11-03T01:15:15.322Z,6.28
2022-11-03T01:17:45.693Z,3.85
2022-11-03T01:20:15.752Z,7.97
2022-11-03T01:22:46.199Z,7.00
2022-11-03T01:25:17.718Z,7.20
2022-11-03T01:27:48.068Z,13.93
2022-11-03T01:30:19.649Z,8.52
2022-11-03T01:32:50.092Z,9.25
2022-11-03T01:35:20.053Z,6.85
2022-11-03T01:37:50.599Z,6.45
2022-11-03T01:40:21.497Z,13.60
2022-11-03T01:42:52.189Z,9.50
2022-11-03T01:45:24.382Z,6.65
2022-11-03T01:47:54.942Z,8.90
2022-11-03T01:50:25.619Z,6.27
2022-11-03T01:53:00.291Z,7.35
2022-11-03T01:55:36.059Z,4.82
2022-11-03T01:58:11.361Z,7.93
2022-11-03T02:00:45.898Z,7.47
2022-11-03T02:03:18.571Z,5.97
2022-11-03T02:05:50.386Z,10.70
2022-11-03T02:08:25.390Z,10.18
2022-11-03T02:10:55.521Z,8.27
2022-11-03T02:13:27.901Z,7.85
2022-11-03T02:16:01.233Z,9.02
2022-11-03T02:18:34.639Z,9.50
2022-11-03T02:21:13.853Z,8.25
2022-11-03T02:23:50.571Z,11.77
2022-11-03T02:26:22.272Z,6.38
2022-11-03T02:31:32.010Z,7.32
2022-11-03T02:34:08.882Z,6.78
2022-11-03T02:36:43.488Z,9.02
2022-11-03T02:39:20.151Z,7.30
2022-11-03T02:41:54.419Z,4.63
2022-11-03T02:44:27.391Z,5.80
2022-11-03T02:47:00.909Z,9.65
2022-11-03T02:49:31.583Z,9.23
2022-11-03T02:52:02.950Z,6.00
2022-11-03T02:54:38.851Z,10.38
2022-11-03T02:57:16.019Z,5.95
2022-11-03T02:59:51.891Z,7.65
2022-11-03T03:02:32.796Z,6.57
2022-11-03T03:05:08.131Z,7.68
2022-11-03T03:07:42.131Z,8.52
2022-11-03T03:10:16.313Z,5.95
2022-11-03T03:12:50.791Z,8.80
2022-11-03T03:15:25.519Z,8.30
2022-11-03T03:18:03.792Z,6.18
2022-11-03T03:20:39.497Z,8.93
2022-11-03T03:23:18.347Z,10.23
2022-11-03T03:25:53.850Z,6.85
2022-11-03T03:28:28.080Z,10.38
2022-11-03T03:31:03.501Z,8.45
2022-11-03T03:33:36.149Z,15.05
2022-11-03T03:36:11.062Z,8.60
2022-11-03T03:38:46.537Z,8.20
2022-11-03T03:41:22.362Z,14.07
2022-11-03T03:43:57.230Z,10.25
2022-11-03T03:46:34.252Z,13.93
2022-11-03T03:49:04.741Z,9.50
2022-11-03T03:51:36.580Z,10.37
2022-11-03T03:54:06.713Z,7.55
2022-11-03T03:56:43.981Z,7.53
2022-11-03T03:59:15.772Z,9.93
2022-11-03T04:01:47.718Z,13.80
2022-11-03T04:04:18.052Z,9.23
2022-11-03T04:06:48.460Z,14.40
2022-11-03T04:09:18.461Z,12.18
2022-11-03T04:12:05.921Z,16.88
2022-11-03T04:14:54.514Z,13.27
2022-11-03T04:17:42.701Z,10.75
2022-11-03T04:20:33.608Z,8.85
2022-11-03T04:23:04.040Z,7.88
2022-11-03T04:25:34.191Z,13.45
2022-11-03T04:28:07.683Z,14.13
2022-11-03T04:30:39.519Z,6.45
2022-11-03T04:33:16.551Z,19.52
2022-11-03T04:35:46.971Z,13.45
2022-11-03T04:38:25.339Z,7.47
2022-11-03T04:40:57.422Z,9.10
2022-11-03T04:43:34.915Z,10.48
2022-11-03T04:46:06.969Z,9.02
2022-11-03T04:48:38.072Z,11.23
2022-11-03T04:51:16.438Z,11.13
2022-11-03T04:53:54.811Z,10.00
2022-11-03T04:56:26.949Z,9.98
2022-11-03T04:58:59.631Z,9.32
2022-11-03T05:01:31.761Z,10.30
2022-11-03T05:04:02.306Z,10.65
2022-11-03T05:06:32.712Z,5.90
2022-11-03T05:09:09.381Z,7.97
2022-11-03T05:11:41.530Z,8.55
2022-11-03T05:14:18.991Z,19.85
2022-11-03T05:16:53.979Z,6.85
2022-11-03T05:19:29.032Z,10.65
2022-11-03T05:22:01.954Z,9.80
2022-11-03T05:24:34.342Z,12.38
2022-11-03T05:27:04.612Z,11.93
2022-11-03T05:29:38.500Z,11.15
2022-11-03T05:32:16.562Z,8.23
2022-11-03T05:34:51.519Z,7.55
2022-11-03T05:37:30.660Z,10.27
2022-11-03T05:40:02.880Z,6.28
2022-11-03T05:42:36.536Z,10.65
2022-11-03T05:45:16.753Z,6.78
2022-11-03T05:47:49.311Z,7.47
2022-11-03T05:50:25.529Z,6.80
2022-11-03T05:53:14.359Z,7.65
2022-11-03T05:55:45.860Z,8.10
2022-11-03T05:58:24.028Z,10.70
2022-11-03T06:00:58.012Z,8.18
2022-11-03T06:03:31.677Z,7.82
2022-11-03T06:06:03.622Z,11.35
2022-11-03T06:08:40.182Z,11.73
2022-11-03T06:11:24.024Z,11.10
2022-11-03T06:13:54.781Z,10.32
2022-11-03T06:16:40.409Z,15.43
2022-11-03T06:19:28.635Z,17.15
2022-11-03T06:22:15.467Z,12.80
2022-11-03T06:24:45.907Z,14.90
2022-11-03T06:27:18.289Z,16.07
2022-11-03T06:29:52.489Z,18.60
2022-11-03T06:32:22.901Z,14.60
2022-11-03T06:34:56.850Z,19.30
2022-11-03T06:37:32.769Z,16.00
2022-11-03T06:40:24.671Z,17.10
2022-11-03T06:42:55.890Z,18.25
2022-11-03T06:45:28.283Z,18.05
2022-11-03T06:47:59.612Z,13.07
2022-11-03T06:50:33.915Z,15.85
2022-11-03T06:53:06.399Z,19.98
2022-11-03T06:55:39.696Z,13.43
2022-11-03T06:58:22.015Z,15.10
2022-11-03T07:00:52.448Z,19.93
2022-11-03T07:03:30.965Z,15.60
2022-11-03T07:06:13.327Z,32.95
2022-11-03T07:08:46.221Z,13.80
2022-11-03T07:11:20.616Z,20.13
2022-11-03T07:13:56.191Z,16.05
2022-11-03T07:16:34.097Z,11.35
2022-11-03T07:19:07.876Z,16.70
2022-11-03T07:21:43.667Z,12.98
2022-11-03T07:24:20.770Z,12.00
2022-11-03T07:26:55.754Z,28.88
2022-11-03T07:29:30.855Z,12.73
2022-11-03T07:32:01.913Z,17.95
2022-11-03T07:34:35.495Z,14.15
2022-11-03T07:37:07.173Z,12.15
2022-11-03T07:39:40.284Z,10.93
2022-11-03T07:42:17.346Z,9.82
2022-11-03T07:44:49.756Z,9.43
2022-11-03T07:47:26.058Z,11.23
2022-11-03T07:49:57.896Z,13.82
2022-11-03T07:52:29.966Z,9.65
2022-11-03T07:55:02.242Z,13.77
2022-11-03T07:57:33.186Z,8.63
2022-11-03T08:00:10.350Z,11.73
2022-11-03T08:02:49.419Z,11.35
2022-11-03T08:07:56.245Z,10.18
2022-11-03T08:10:26.774Z,15.15
2022-11-03T08:12:56.997Z,11.80
2022-11-03T08:15:27.505Z,14.17
2022-11-03T08:17:57.662Z,6.60
2022-11-03T08:20:28.215Z,9.23
2022-11-03T08:23:24.021Z,6.22
2022-11-03T08:25:50.948Z,7.05
2022-11-03T08:28:22.885Z,8.82
2022-11-03T08:30:53.507Z,6.03
2022-11-03T08:33:26.726Z,8.02
2022-11-03T08:35:57.626Z,4.40
2022-11-03T08:38:29.564Z,9.68
2022-11-03T08:41:00.446Z,7.80
2022-11-03T08:43:30.785Z,10.25
2022-11-03T08:46:08.140Z,8.20
2022-11-03T08:48:43.135Z,10.57
2022-11-03T08:51:14.387Z,8.27
2022-11-03T08:53:46.644Z,9.85
2022-11-03T08:56:20.479Z,12.07
2022-11-03T08:58:52.768Z,10.52
2022-11-03T09:01:23.401Z,6.57
2022-11-03T09:03:53.703Z,10.70
2022-11-03T09:06:24.525Z,9.90
2022-11-03T09:11:47.356Z,9.07
2022-11-03T09:14:17.622Z,7.70
2022-11-03T09:16:48.481Z,10.55
2022-11-03T09:19:19.507Z,13.13
2022-11-03T09:21:50.025Z,13.60
2022-11-03T09:24:21.558Z,10.90
2022-11-03T09:26:51.989Z,10.68
2022-11-03T09:29:22.307Z,13.48
2022-11-03T09:31:52.837Z,11.05
2022-11-03T09:34:22.937Z,8.38
2022-11-03T09:36:53.539Z,13.17
2022-11-03T09:39:25.093Z,8.65
2022-11-03T09:41:59.351Z,9.98
2022-11-03T09:44:29.776Z,11.68
2022-11-03T09:47:02.334Z,8.48
2022-11-03T09:49:35.242Z,7.63
2022-11-03T09:52:06.793Z,7.22
2022-11-03T09:54:38.184Z,7.68
2022-11-03T09:57:14.122Z,11.75
2022-11-03T09:59:47.035Z,5.93
2022-11-03T10:02:24.436Z,8.98
2022-11-03T10:04:57.876Z,5.38
2022-11-03T10:07:31.252Z,6.53
2022-11-03T10:10:03.794Z,6.10
2022-11-03T10:12:38.132Z,12.05
2022-11-03T10:15:15.674Z,7.03
2022-11-03T10:17:47.109Z,10.23
2022-11-03T10:20:19.716Z,7.82
2022-11-03T10:22:53.997Z,12.75
2022-11-03T10:25:39.249Z,10.30
2022-11-03T10:28:19.086Z,10.95
2022-11-03T10:31:11.375Z,7.13
2022-11-03T10:33:52.431Z,6.72
2022-11-03T10:36:27.553Z,6.60
2022-11-03T10:38:58.164Z,8.75
2022-11-03T10:41:31.026Z,8.67
2022-11-03T10:44:05.167Z,7.38
2022-11-03T10:46:51.647Z,10.57
2022-11-03T10:49:22.394Z,5.85
2022-11-03T10:51:53.913Z,12.27
2022-11-03T10:54:26.109Z,7.50
2022-11-03T10:56:57.819Z,8.18
2022-11-03T10:59:33.251Z,14.23
2022-11-03T11:02:04.135Z,7.65
2022-11-03T11:07:05.260Z,6.35
2022-11-03T11:09:36.646Z,11.45
2022-11-03T11:12:17.191Z,6.90
2022-11-03T11:15:01.437Z,8.60
2022-11-03T11:17:46.602Z,5.72
2022-11-03T11:20:41.738Z,9.50
2022-11-03T11:23:53.347Z,11.57
2022-11-03T11:29:45.407Z,12.15
2022-11-03T11:32:49.577Z,9.13
2022-11-03T11:36:06.368Z,7.65
2022-11-03T11:39:11.196Z,8.88
2022-11-03T11:42:13.945Z,8.57
2022-11-03T11:45:07.192Z,12.70
2022-11-03T11:47:51.382Z,10.00
2022-11-03T11:50:41.049Z,14.15
2022-11-03T11:53:20.718Z,8.10
2022-11-03T11:55:56.708Z,10.73
2022-11-03T11:58:31.933Z,8.93
2022-11-03T12:01:04.357Z,9.75
2022-11-03T12:03:39.582Z,11.38
2022-11-03T12:06:14.055Z,11.32
2022-11-03T12:08:45.335Z,9.05
2022-11-03T12:11:15.789Z,12.27
2022-11-03T12:13:48.923Z,8.35
2022-11-03T12:16:33.395Z,12.13
2022-11-03T12:19:49.185Z,10.00
2022-11-03T12:22:44.765Z,8.93
2022-11-03T12:25:36.606Z,10.15
2022-11-03T12:28:07.346Z,10.13
2022-11-03T12:30:40.045Z,10.48
2022-11-03T12:33:11.215Z,7.63
2022-11-03T12:35:41.344Z,7.60
2022-11-03T12:38:13.299Z,8.77
2022-11-03T12:40:43.307Z,8.82
2022-11-03T12:43:14.077Z,12.00
2022-11-03T12:45:44.363Z,10.35
2022-11-03T12:48:15.097Z,6.88
2022-11-03T12:50:45.145Z,9.02
2022-11-03T12:53:17.048Z,9.63
2022-11-03T12:55:47.420Z,8.48
2022-11-03T12:58:18.386Z,9.93
2022-11-03T13:00:53.846Z,6.40
2022-11-03T13:03:25.676Z,6.30
2022-11-03T13:05:55.944Z,10.25
2022-11-03T13:08:28.254Z,7.30
2022-11-03T13:10:59.178Z,8.70
2022-11-03T13:13:29.527Z,8.93
2022-11-03T13:15:59.810Z,9.15
2022-11-03T13:18:30.877Z,10.03
2022-11-03T13:21:01.922Z,7.40
2022-11-03T13:26:03.393Z,7.97
2022-11-03T13:28:33.850Z,7.90
2022-11-03T13:31:03.989Z,10.95
2022-11-03T13:33:34.497Z,8.30
2022-11-03T13:36:05.533Z,8.20
2022-11-03T13:41:09.170Z,11.55
2022-11-03T13:43:40.264Z,8.00
2022-11-03T13:46:10.415Z,8.82
2022-11-03T13:51:31.673Z,10.75
2022-11-03T13:59:44.166Z,12.10
2022-11-03T14:05:07.110Z,8.43
2022-11-03T14:07:38.712Z,9.23
2022-11-03T14:10:11.577Z,9.45
2022-11-03T14:12:40.668Z,9.80
2022-11-03T14:15:13.429Z,7.03
2022-11-03T14:17:43.793Z,10.95
2022-11-03T14:20:15.274Z,9.45
2022-11-03T14:22:45.435Z,12.70
2022-11-03T14:25:21.231Z,11.93
2022-11-03T14:27:51.422Z,9.10
2022-11-03T14:30:22.275Z,9.63
2022-11-03T14:32:55.463Z,7.93
2022-11-03T14:35:29.618Z,15.07
2022-11-03T14:37:59.719Z,8.15
2022-11-03T14:40:49.449Z,16.73
2022-11-03T14:43:19.419Z,13.52
2022-11-03T14:45:49.866Z,10.32
2022-11-03T14:48:19.839Z,9.52
2022-11-03T14:50:50.320Z,7.85
2022-11-03T14:53:21.119Z,15.90
2022-11-03T14:55:53.065Z,14.63
2022-11-03T15:00:53.495Z,12.10
2022-11-03T15:03:23.757Z,15.95
2022-11-03T15:05:55.809Z,12.63
2022-11-03T15:10:58.337Z,18.42
2022-11-03T15:13:28.527Z,18.75
2022-11-03T15:15:59.189Z,12.90
2022-11-03T15:18:29.420Z,17.55
2022-11-03T15:20:59.748Z,11.87
2022-11-03T15:28:53.218Z,18.98
2022-11-03T15:31:25.992Z,12.75
2022-11-03T15:33:55.994Z,13.45
2022-11-03T15:36:28.050Z,10.07
2022-11-03T15:38:58.820Z,27.27
2022-11-03T15:41:30.610Z,14.45
2022-11-03T15:44:00.878Z,12.50
2022-11-03T15:46:32.100Z,12.48
2022-11-03T15:49:02.452Z,12.90
2022-11-03T15:51:32.799Z,16.03
2022-11-03T15:54:04.360Z,14.75
2022-11-03T15:56:39.334Z,12.13
2022-11-03T15:59:14.849Z,11.93
2022-11-03T16:02:03.458Z,17.75
2022-11-03T16:04:48.502Z,10.75
2022-11-03T16:07:20.102Z,14.57
2022-11-03T16:09:50.951Z,15.20
2022-11-03T16:12:24.500Z,15.63
2022-11-03T16:14:55.611Z,15.00
2022-11-03T16:17:26.791Z,16.55
2022-11-03T16:19:56.718Z,17.00
2022-11-03T16:22:26.983Z,18.20
2022-11-03T16:24:57.119Z,14.00
2022-11-03T16:27:29.440Z,16.52
2022-11-03T16:29:59.896Z,14.18
2022-11-03T16:32:30.633Z,16.42
2022-11-03T16:35:00.960Z,14.13
2022-11-03T16:37:31.429Z,20.85
2022-11-03T16:40:02.018Z,16.95
2022-11-03T16:42:38.710Z,20.50
2022-11-03T16:45:18.039Z,18.40
2022-11-03T16:47:52.272Z,20.33
2022-11-03T16:50:23.800Z,20.00
2022-11-03T16:52:57.783Z,19.25
2022-11-03T16:55:28.864Z,20.98
2022-11-03T16:58:02.860Z,21.10
2022-11-03T17:00:34.496Z,19.38
2022-11-03T17:03:06.249Z,20.15
2022-11-03T17:05:36.858Z,24.25
2022-11-03T17:08:25.642Z,31.52
2022-11-03T17:10:59.823Z,30.15
2022-11-03T17:13:33.247Z,41.90
2022-11-03T17:16:04.523Z,67.47
2022-11-03T17:18:37.039Z,86.82
2022-11-03T17:21:08.061Z,124.93
2022-11-03T17:23:40.836Z,86.05
2022-11-03T17:26:12.363Z,84.88
2022-11-03T17:28:44.697Z,62.95
2022-11-03T17:31:14.918Z,70.57
2022-11-03T17:33:45.397Z,112.38
2022-11-03T17:36:15.419Z,110.07
2022-11-03T17:38:45.949Z,107.53
2022-11-03T17:41:18.898Z,121.63
2022-11-03T17:43:52.769Z,85.43
2022-11-03T17:46:23.197Z,83.10
2022-11-03T17:48:53.680Z,87.28
2022-11-03T17:51:23.856Z,101.65
2022-11-03T17:53:54.226Z,91.03
2022-11-03T17:56:30.784Z,94.68
2022-11-03T17:59:03.633Z,93.53
2022-11-03T18:01:33.765Z,94.82
2022-11-03T18:04:04.721Z,96.60
2022-11-03T18:06:34.832Z,97.90
2022-11-03T18:09:05.771Z,107.53
2022-11-03T18:11:55.463Z,114.77
2022-11-03T18:14:30.296Z,98.80
2022-11-03T18:17:00.679Z,101.32
2022-11-03T18:19:32.621Z,99.43
2022-11-03T18:24:33.403Z,106.72
2022-11-03T18:27:03.531Z,121.55
2022-11-03T18:29:35.491Z,134.55
2022-11-03T18:32:05.640Z,122.95
2022-11-03T18:34:37.063Z,158.25
2022-11-03T18:37:07.299Z,148.02
2022-11-03T18:39:38.390Z,140.60
2022-11-03T18:42:15.602Z,141.33
2022-11-03T18:44:49.440Z,143.38
2022-11-03T18:47:19.541Z,140.38
2022-11-03T18:49:50.087Z,140.48
2022-11-03T18:52:20.844Z,144.00
2022-11-03T18:54:52.541Z,148.40
2022-11-03T18:57:26.720Z,140.90
2022-11-03T18:59:58.693Z,137.32
2022-11-03T19:05:01.358Z,146.35
2022-11-03T19:07:40.364Z,168.55
2022-11-03T19:10:16.599Z,158.63
2022-11-03T19:12:48.109Z,186.25
2022-11-03T19:15:26.596Z,179.85
2022-11-03T19:18:01.247Z,188.27
2022-11-03T19:20:36.091Z,182.10
2022-11-03T19:23:07.877Z,195.90
2022-11-03T19:25:46.028Z,195.93
2022-11-03T19:28:22.809Z,183.63
2022-11-03T19:30:57.857Z,187.98
2022-11-03T19:33:31.207Z,193.27
2022-11-03T19:36:02.233Z,187.50
2022-11-03T19:38:32.800Z,186.70
2022-11-03T19:41:20.616Z,185.98
2022-11-03T19:43:50.821Z,174.98
2022-11-03T19:46:22.810Z,186.70
2022-11-03T19:48:53.052Z,166.88
2022-11-03T19:51:23.520Z,148.85
2022-11-03T19:53:53.979Z,161.63
2022-11-03T19:56:25.703Z,168.38
2022-11-03T19:58:55.741Z,187.13
2022-11-03T20:01:28.662Z,159.98
2022-11-03T20:03:58.775Z,161.80
2022-11-03T20:06:29.665Z,172.82
2022-11-03T20:08:59.768Z,214.43
2022-11-03T20:11:30.186Z,212.52
2022-11-03T20:14:00.269Z,229.15
2022-11-03T20:16:33.090Z,246.77
2022-11-03T20:19:03.650Z,210.80
2022-11-03T20:21:34.554Z,212.07
2022-11-03T20:24:06.161Z,219.97
2022-11-03T20:26:36.861Z,195.68
2022-11-03T20:29:13.122Z,170.27
2022-11-03T20:31:46.509Z,132.30
2022-11-03T20:34:17.301Z,144.35
2022-11-03T20:36:48.296Z,135.07
2022-11-03T20:39:20.652Z,136.20
2022-11-03T20:42:01.799Z,130.77
2022-11-03T20:44:38.176Z,129.82
2022-11-03T20:47:16.150Z,143.77
2022-11-03T20:49:46.243Z,131.73
2022-11-03T20:52:33.276Z,131.05
2022-11-03T20:55:18.733Z,122.60
2022-11-03T20:57:52.715Z,116.38
2022-11-03T21:00:25.540Z,108.75
2022-11-03T21:02:57.909Z,117.38
2022-11-03T21:05:29.832Z,104.45
2022-11-03T21:08:00.230Z,109.70
2022-11-03T21:10:30.371Z,114.45
2022-11-03T21:13:02.141Z,111.80
2022-11-03T21:16:18.376Z,110.07
2022-11-03T21:18:58.890Z,105.43
2022-11-03T21:21:28.880Z,101.60
2022-11-03T21:23:59.413Z,101.18
2022-11-03T21:26:30.761Z,104.95
2022-11-03T21:29:02.043Z,103.28
2022-11-03T21:31:32.214Z,96.90
2022-11-03T21:34:05.306Z,101.15
2022-11-03T21:36:35.391Z,99.07
2022-11-03T21:39:05.771Z,100.65
2022-11-03T21:41:52.790Z,92.82
2022-11-03T21:44:24.822Z,97.82
2022-11-03T21:49:44.286Z,88.82
2022-11-03T21:52:14.999Z,102.00
2022-11-03T21:54:46.095Z,92.53
2022-11-03T21:57:16.726Z,79.70
2022-11-03T21:59:47.469Z,71.30
2022-11-03T22:02:17.730Z,82.00
2022-11-03T22:04:50.303Z,101.43
2022-11-03T22:07:20.332Z,98.15
2022-11-03T22:09:50.670Z,111.88
2022-11-03T22:12:20.773Z,118.63
2022-11-03T22:15:08.370Z,96.93
2022-11-03T22:17:38.413Z,119.45
2022-11-03T22:20:28.424Z,135.85
2022-11-03T22:23:18.564Z,134.32
2022-11-03T22:26:06.734Z,104.15
2022-11-03T22:28:36.694Z,93.35
2022-11-03T22:31:24.591Z,193.13
2022-11-03T22:34:12.796Z,166.57
2022-11-03T22:36:44.524Z,118.47
2022-11-03T22:39:32.813Z,71.18
2022-11-03T22:42:19.483Z,242.27
2022-11-03T22:45:05.862Z,141.70
2022-11-03T22:47:36.154Z,111.50
2022-11-03T22:50:06.533Z,146.88
2022-11-03T22:52:38.284Z,110.87
2022-11-03T22:55:07.695Z,136.93
2022-11-03T22:57:38.095Z,105.07
2022-11-03T23:00:08.953Z,76.95
2022-11-03T23:02:39.261Z,118.05
2022-11-03T23:05:09.984Z,64.28
2022-11-03T23:07:41.920Z,95.68
2022-11-03T23:10:12.444Z,55.38
2022-11-03T23:12:42.689Z,57.45
2022-11-03T23:15:30.033Z,76.53
2022-11-03T23:18:17.932Z,82.47
2022-11-03T23:21:05.483Z,67.75
2022-11-03T23:23:55.595Z,71.68
2022-11-03T23:26:27.564Z,119.18
2022-11-03T23:28:58.003Z,144.55
2022-11-03T23:31:28.039Z,99.07
2022-11-03T23:34:00.388Z,79.43
2022-11-03T23:36:31.123Z,64.80
2022-11-03T23:39:03.713Z,56.42
2022-11-03T23:41:34.015Z,65.82
2022-11-03T23:44:04.510Z,58.50
2022-11-03T23:46:51.723Z,58.83
2022-11-03T23:49:22.015Z,55.75
2022-11-03T23:51:52.068Z,50.03
2022-11-03T23:54:23.853Z,59.30
2022-11-03T23:57:11.485Z,58.47
2022-11-03T23:59:41.877Z,129.20
